Archival Weather

Dewar Lakes

Dewar Lakes, Canada (CWUW)

Report from: Friday, May 26, 2023 5:00 PM EDT
Current time: Monday, July 22, 2024 7:57 AM EDT

Current weather – Weather history – Daily summaries
Weather forecast

Present weatherSM
Temperature-12.0°C (10.4°F)
Wind chill-24.3°C (-11.7°F)
Dew point-14.0°C (6.8°F)
Winds 26 kts (13.4 m/s, 29.9 mph) West-Northwest (290°)
Wind gusts 32 kts (16.5 m/s, 36.8 mph)
Visibility0 ft. (0 m)
Altimeter29.75 in.Hg (1007 mB)
Relative humidity85 %
Density altitude-3,155 ft. (-962 m)
Remarks Fully automated report
Flight conditions Low Instrument Meteorological Conditions
Raw dataCWUW 262100Z AUTO 29026G32KT ////SM ////// M12/M14 A2975
An error has occurred. This application may no longer respond until reloaded. Reload 🗙